Eagle Rock, Virginia
Current Conditions -  °F | °C
As of 7:15 PM on Thursday 27 Nov 2014 (Local Time) from KHSP Reporting Station
Light Snow Light Snow  
Wind Chill: 12°   Ceiling: 800
Heat Index: 23°   Visibility: 7mi
Dew Point: 20°   Wind: 12mph
Humidity: 89%   Direction: 290°WNW
Pressure: 30.03"   Gusts: 18mph
Location:  37.64°N, 79.8°W
Report Text: KHSP 280015Z AUTO 29010G16KT 7SM -SN OVC008 M05/M06 A3003 RMK AO2 T10501065
Loading
Personal Weather Stations






























Interactive Weather Map New forecast layout! Learn more

10-Day Weather Forecast

Advertisements
Track Severe Weather on mobile